Terminal Aerodrome Forecast
Issued by NWS Wilmington, OH

Home | Current Version | Previous Version | Text Only | Print | Product List | Glossary On
Versions: 1 2 3 4 5 6 7 8 9 10 11 12 13 14 15 16 17 18 19 20
824
FTUS41 KILN 061740
TAFCMH
TAF
KCMH 061740Z 0618/0718 10006KT 3SM -RA BR OVC008
     FM061930 35006KT 2SM -RA BR OVC005
     FM062100 29009KT 3SM -DZ BR OVC007
     FM070100 29012G20KT P6SM OVC012
     FM070700 28010KT P6SM OVC022
     FM070900 27007KT P6SM SCT200
     FM071300 24006KT P6SM BKN150=

USA.gov is the U.S. government's official web portal to all federal, state and local government web resources and services.